Time;durP1;ratioP1;P1;durP2;ratioP2;P2;SDS_P1;SDS_P2;PMS_P1;PMS_P2;Temp;Humidity;BMP_temperature;BMP_pressure;BME280_temperature;BME280_humidity;BME280_pressure;Samples;Min_cycle;Max_cycle;Signal;HPM_P1;HPM_P2
2023/04/08 00:01:26;;;;;;;24.90;14.30;;;;;;;7.07;100.00;102215.63;4973695;28;20023;-74
2023/04/08 00:03:52;;;;;;;26.95;12.93;;;;;;;7.12;100.00;102224.31;4975008;28;20018;-74
2023/04/08 00:06:17;;;;;;;27.40;14.63;;;;;;;7.13;100.00;102226.09;4974697;28;20474;-74
2023/04/08 00:08:43;;;;;;;26.02;14.20;;;;;;;7.14;100.00;102222.63;4974362;28;20019;-74
2023/04/08 00:11:08;;;;;;;26.27;14.50;;;;;;;7.15;100.00;102224.38;4974513;28;20111;-74
2023/04/08 00:13:33;;;;;;;30.95;14.60;;;;;;;7.19;100.00;102225.28;4974507;28;20031;-74
2023/04/08 00:15:59;;;;;;;31.25;15.10;;;;;;;7.19;100.00;102231.34;4974307;28;20027;-74
2023/04/08 00:18:24;;;;;;;29.38;14.60;;;;;;;7.14;100.00;102207.06;4974300;28;20053;-74
2023/04/08 00:20:49;;;;;;;30.20;16.42;;;;;;;7.20;100.00;102217.53;4974843;28;20528;-74
2023/04/08 00:23:15;;;;;;;33.78;15.38;;;;;;;7.19;100.00;102220.97;4973637;28;20047;-74
2023/04/08 00:25:41;;;;;;;33.13;15.88;;;;;;;7.20;100.00;102221.84;4973781;28;20031;-74
2023/04/08 00:28:06;;;;;;;33.28;16.42;;;;;;;7.19;100.00;102220.09;4974246;28;20069;-74
2023/04/08 00:30:31;;;;;;;26.92;15.43;;;;;;;7.20;100.00;102227.91;4973356;28;20033;-74
2023/04/08 00:32:57;;;;;;;28.88;15.43;;;;;;;7.20;100.00;102227.91;4973943;28;20423;-74
2023/04/08 00:35:23;;;;;;;29.67;16.00;;;;;;;7.21;100.00;102226.16;4972857;28;20038;-75
2023/04/08 00:37:48;;;;;;;33.67;15.88;;;;;;;7.18;100.00;102221.81;4972282;28;20387;-74
2023/04/08 00:40:14;;;;;;;31.02;17.52;;;;;;;7.18;100.00;102219.22;4973885;28;20034;-74
2023/04/08 00:42:39;;;;;;;39.05;18.73;;;;;;;7.18;100.00;102223.53;4972680;28;20031;-74
2023/04/08 00:45:05;;;;;;;29.42;18.00;;;;;;;7.17;100.00;102225.28;4973349;28;20023;-73
2023/04/08 00:47:30;;;;;;;34.90;18.45;;;;;;;7.19;100.00;102230.47;4973339;28;20515;-74
2023/04/08 00:49:56;;;;;;;37.05;18.42;;;;;;;7.19;100.00;102227.88;4972740;28;20109;-75
2023/04/08 00:52:21;;;;;;;35.28;17.85;;;;;;;7.19;100.00;102233.94;4973578;28;20893;-74
2023/04/08 00:54:47;;;;;;;37.78;18.67;;;;;;;7.19;100.00;102231.34;4974162;28;20022;-74
2023/04/08 00:57:12;;;;;;;38.63;18.52;;;;;;;7.11;100.00;102211.34;4973213;28;20482;-74
2023/04/08 00:59:37;;;;;;;41.35;17.98;;;;;;;7.18;100.00;102234.78;4973984;28;20359;-74
2023/04/08 01:02:26;;;;;;;33.72;18.67;;;;;;;7.18;100.00;102232.19;4973915;28;20082;-74
2023/04/08 01:05:01;;;;;;;37.33;19.77;;;;;;;7.15;100.00;102226.97;4973077;28;20050;-74
2023/04/08 01:07:27;;;;;;;40.38;19.20;;;;;;;7.20;100.00;102237.41;4973576;28;20223;-74
2023/04/08 01:09:55;;;;;;;42.13;22.02;;;;;;;7.20;100.00;102235.69;4973608;28;20063;-74
2023/04/08 01:12:28;;;;;;;46.60;20.95;;;;;;;7.20;100.00;102235.69;4972927;28;20085;-74
2023/04/08 01:15:04;;;;;;;45.35;21.60;;;;;;;7.19;100.00;102228.75;4973905;28;20031;-74
2023/04/08 01:17:31;;;;;;;50.47;23.35;;;;;;;7.20;100.00;102235.69;4973801;28;20027;-74
2023/04/08 01:20:00;;;;;;;48.35;21.70;;;;;;;7.22;100.00;102230.50;4973004;28;20033;-74
2023/04/08 01:22:34;;;;;;;48.10;23.38;;;;;;;7.18;100.00;102227.00;4973678;28;20046;-74
2023/04/08 01:25:07;;;;;;;45.63;23.50;;;;;;;7.22;100.00;102235.69;4973341;28;20034;-74
2023/04/08 01:27:34;;;;;;;51.28;23.33;;;;;;;7.18;100.00;102231.31;4966771;28;20019;-74
2023/04/08 01:30:02;;;;;;;50.13;22.77;;;;;;;7.16;100.00;102235.59;4973823;28;20015;-74
2023/04/08 01:32:28;;;;;;;42.30;22.77;;;;;;;7.10;100.00;102222.59;4954924;28;20037;-74
2023/04/08 01:34:55;;;;;;;46.83;23.88;;;;;;;7.22;100.00;102246.94;4973830;28;20390;-74
2023/04/08 01:37:21;;;;;;;50.15;23.50;;;;;;;7.24;100.00;102245.22;4979950;28;20031;-74
2023/04/08 01:39:48;;;;;;;50.55;23.40;;;;;;;7.19;100.00;102236.53;4979593;28;20034;-74
2023/04/08 01:42:14;;;;;;;46.28;22.85;;;;;;;7.22;100.00;102243.47;4980268;28;20063;-74
2023/04/08 01:44:44;;;;;;;46.75;21.05;;;;;;;7.15;100.00;102242.53;4979724;28;20031;-74
2023/04/08 01:47:12;;;;;;;43.03;21.27;;;;;;;7.12;100.00;102242.47;4979090;28;20109;-74
2023/04/08 01:49:38;;;;;;;49.85;21.02;;;;;;;7.08;100.00;102245.88;4980054;28;20019;-74
2023/04/08 01:52:05;;;;;;;41.67;22.20;;;;;;;7.04;100.00;102249.31;4979647;28;20030;-74
2023/04/08 01:54:31;;;;;;;44.10;22.27;;;;;;;6.99;100.00;102246.63;4977174;28;20045;-74
2023/04/08 01:56:58;;;;;;;44.83;21.58;;;;;;;6.95;100.00;102249.16;4979404;28;20383;-74
2023/04/08 01:59:30;;;;;;;36.88;19.95;;;;;;;6.91;100.00;102244.78;4975694;28;20498;-74
2023/04/08 02:01:56;;;;;;;40.65;20.58;;;;;;;6.86;100.00;102236.06;4974961;28;20026;-74
2023/04/08 02:04:21;;;;;;;40.88;22.13;;;;;;;6.86;100.00;102252.50;4978297;28;20372;-74
2023/04/08 02:06:46;;;;;;;39.78;21.40;;;;;;;6.83;100.00;102243.81;4979881;28;20042;-74
2023/04/08 02:09:12;;;;;;;46.72;22.00;;;;;;;6.83;100.00;102246.41;4978703;28;20030;-74
2023/04/08 02:11:37;;;;;;;39.30;20.30;;;;;;;6.84;100.00;102242.97;4978955;28;20037;-75
2023/04/08 02:14:03;;;;;;;42.72;22.73;;;;;;;6.80;100.00;102237.75;4977989;28;20027;-75
2023/04/08 02:16:55;;;;;;;43.28;22.30;;;;;;;6.82;100.00;102242.94;4979538;28;20054;-75
2023/04/08 02:19:43;;;;;;;48.92;22.65;;;;;;;6.79;100.00;102251.53;4979511;28;20053;-75
2023/04/08 02:22:17;;;;;;;44.47;22.30;;;;;;;6.76;100.00;102250.63;4978799;28;20014;-74
2023/04/08 02:24:43;;;;;;;38.08;22.08;;;;;;;6.77;100.00;102250.66;4979635;28;20022;-74
2023/04/08 02:27:09;;;;;;;40.25;22.08;;;;;;;6.74;100.00;102248.03;4979313;28;20026;-75
2023/04/08 02:29:35;;;;;;;48.83;21.55;;;;;;;6.74;100.00;102247.16;4979191;28;20022;-74
2023/04/08 02:32:04;;;;;;;48.95;23.02;;;;;;;6.73;100.00;102254.03;4979529;28;20031;-75
2023/04/08 02:34:29;;;;;;;42.20;22.27;;;;;;;6.73;100.00;102254.03;4979590;28;20042;-75
2023/04/08 02:36:55;;;;;;;40.70;22.88;;;;;;;6.75;100.00;102262.72;4979022;28;20388;-75
2023/04/08 02:39:20;;;;;;;44.50;23.48;;;;;;;6.76;100.00;102260.97;4979204;28;20117;-75
2023/04/08 02:41:45;;;;;;;43.25;23.45;;;;;;;6.74;100.00;102255.78;4979716;28;20023;-74
2023/04/08 02:44:11;;;;;;;47.55;23.92;;;;;;;6.73;100.00;102256.63;4978315;28;20378;-74
2023/04/08 02:46:36;;;;;;;37.97;22.33;;;;;;;6.70;100.00;102255.72;4978625;28;20026;-75
2023/04/08 02:49:01;;;;;;;43.22;22.88;;;;;;;6.76;100.00;102272.22;4975895;28;20023;-75
2023/04/08 02:51:27;;;;;;;43.03;23.27;;;;;;;6.77;100.00;102263.63;4975161;28;20026;-75
2023/04/08 02:53:52;;;;;;;42.40;22.90;;;;;;;6.78;100.00;102269.66;4976171;28;20023;-75
2023/04/08 02:56:18;;;;;;;41.33;22.60;;;;;;;6.74;100.00;102255.78;4975428;28;20101;-75
2023/04/08 02:58:43;;;;;;;44.72;24.45;;;;;;;6.80;100.00;102267.94;4975743;28;20039;-75
2023/04/08 03:01:09;;;;;;;40.65;22.25;;;;;;;6.80;100.00;102268.84;4975097;28;20053;-75
2023/04/08 03:03:34;;;;;;;49.33;24.10;;;;;;;6.78;100.00;102270.53;4975262;28;20065;-76
2023/04/08 03:06:00;;;;;;;44.85;23.65;;;;;;;6.78;100.00;102270.53;4976096;28;20034;-75
2023/04/08 03:08:25;;;;;;;46.33;23.95;;;;;;;6.79;100.00;102272.25;4975211;28;20105;-75
2023/04/08 03:10:50;;;;;;;49.85;25.52;;;;;;;6.78;100.00;102273.13;4973440;28;20046;-75
2023/04/08 03:13:16;;;;;;;49.03;25.60;;;;;;;6.78;100.00;102267.06;4974461;28;20041;-75
2023/04/08 03:15:41;;;;;;;48.55;25.10;;;;;;;6.74;100.00;102263.56;4975401;28;20035;-75
2023/04/08 03:18:07;;;;;;;48.25;25.77;;;;;;;6.79;100.00;102266.22;4974161;28;20029;-75
2023/04/08 03:20:33;;;;;;;45.17;23.90;;;;;;;6.77;100.00;102267.94;4974512;28;20066;-75
2023/04/08 03:22:58;;;;;;;47.95;24.55;;;;;;;6.71;100.00;102257.47;4974845;28;20062;-75
2023/04/08 03:25:23;;;;;;;50.50;25.10;;;;;;;6.77;100.00;102266.22;4972952;28;20109;-75
2023/04/08 03:27:49;;;;;;;56.47;27.25;;;;;;;6.79;100.00;102266.22;4975017;28;20026;-75
2023/04/08 03:30:15;;;;;;;57.05;26.58;;;;;;;6.77;100.00;102275.72;4974975;28;20027;-75
2023/04/08 03:32:40;;;;;;;54.92;26.90;;;;;;;6.76;100.00;102264.44;4974375;28;20443;-75
2023/04/08 03:35:06;;;;;;;50.65;27.48;;;;;;;6.79;100.00;102272.25;4974183;28;20030;-75
2023/04/08 03:37:31;;;;;;;53.20;26.98;;;;;;;6.75;100.00;102274.81;4974676;28;20049;-75
2023/04/08 03:39:56;;;;;;;56.17;27.13;;;;;;;6.75;100.00;102264.44;4972917;28;20111;-75
2023/04/08 03:42:22;;;;;;;49.30;25.85;;;;;;;6.78;100.00;102269.66;4975268;28;20475;-75
2023/04/08 03:44:48;;;;;;;53.58;27.20;;;;;;;6.75;100.00;102275.66;4974877;28;20364;-75
2023/04/08 03:47:13;;;;;;;53.42;27.98;;;;;;;6.76;100.00;102277.41;4973892;28;20030;-75
2023/04/08 03:49:38;;;;;;;52.35;26.63;;;;;;;6.76;100.00;102272.22;4975018;28;20467;-75
2023/04/08 03:52:03;;;;;;;62.80;27.80;;;;;;;6.77;100.00;102267.94;4973697;28;20038;-75
2023/04/08 03:54:29;;;;;;;56.28;27.42;;;;;;;6.77;100.00;102271.38;4972900;28;20030;-75
2023/04/08 03:56:54;;;;;;;51.03;27.10;;;;;;;6.80;100.00;102275.72;4974630;28;20467;-75
2023/04/08 03:59:20;;;;;;;57.50;27.75;;;;;;;6.82;100.00;102278.34;4973870;28;20045;-75
2023/04/08 04:01:46;;;;;;;55.83;28.77;;;;;;;6.79;100.00;102277.44;4974190;28;20386;-75
2023/04/08 04:04:11;;;;;;;57.88;28.75;;;;;;;6.78;100.00;102270.53;4973255;28;20062;-75
2023/04/08 04:06:37;;;;;;;73.68;30.60;;;;;;;6.79;100.00;102287.81;4961832;28;20427;-75
2023/04/08 04:09:02;;;;;;;65.10;30.25;;;;;;;6.73;100.00;102273.91;4959473;28;20488;-75
2023/04/08 04:11:27;;;;;;;73.97;32.30;;;;;;;6.74;100.00;102281.72;4957584;28;20027;-75
2023/04/08 04:13:53;;;;;;;71.93;32.15;;;;;;;6.63;100.00;102262.50;4957985;28;20057;-75
2023/04/08 04:16:18;;;;;;;82.78;33.35;;;;;;;6.72;100.00;102285.13;4959033;28;20026;-75
2023/04/08 04:18:43;;;;;;;77.40;32.97;;;;;;;6.69;100.00;102275.56;4955040;28;20383;-75
2023/04/08 04:21:11;;;;;;;86.57;33.03;;;;;;;6.72;100.00;102285.13;4954505;28;20407;-75
2023/04/08 04:23:36;;;;;;;83.63;34.67;;;;;;;6.72;100.00;102279.94;4960581;28;20027;-75
2023/04/08 04:26:06;;;;;;;80.10;33.63;;;;;;;6.75;100.00;102290.34;4962383;28;20106;-75
2023/04/08 04:28:32;;;;;;;81.82;33.22;;;;;;;6.78;100.00;102296.44;4951218;28;20054;-75
2023/04/08 04:30:57;;;;;;;78.13;34.03;;;;;;;6.80;100.00;102289.59;4955406;28;20463;-75
2023/04/08 04:33:22;;;;;;;78.22;32.25;;;;;;;6.82;100.00;102293.91;4965347;28;20039;-75
2023/04/08 04:35:47;;;;;;;87.55;34.10;;;;;;;6.82;100.00;102301.69;4954484;28;20027;-75
2023/04/08 04:38:13;;;;;;;82.50;34.25;;;;;;;6.85;100.00;102301.75;4954803;28;20041;-75
2023/04/08 04:40:38;;;;;;;92.28;35.28;;;;;;;6.85;100.00;102302.59;4955222;28;20031;-75
2023/04/08 04:43:04;;;;;;;85.03;35.42;;;;;;;6.87;100.00;102307.81;4953832;28;20196;-75
2023/04/08 04:45:30;;;;;;;93.82;34.42;;;;;;;6.90;100.00;102305.25;4955029;28;20027;-75
2023/04/08 04:47:55;;;;;;;98.35;36.80;;;;;;;6.92;100.00;102311.34;4954695;28;20029;-75
2023/04/08 04:50:20;;;;;;;103.18;36.95;;;;;;;6.88;100.00;102296.59;4954038;28;20031;-75
2023/04/08 04:52:45;;;;;;;106.75;37.17;;;;;;;6.95;100.00;102308.81;4954545;28;20494;-75
2023/04/08 04:55:11;;;;;;;91.68;35.42;;;;;;;6.95;100.00;102308.81;4954812;28;20029;-75
2023/04/08 04:57:36;;;;;;;97.53;36.97;;;;;;;6.96;100.00;102313.13;4954053;28;20031;-74
2023/04/08 05:00:02;;;;;;;101.43;36.60;;;;;;;6.95;100.00;102317.44;4954570;28;20033;-75
2023/04/08 05:02:27;;;;;;;98.78;36.40;;;;;;;6.98;100.00;102320.09;4954787;28;20065;-75
2023/04/08 05:04:54;;;;;;;93.43;36.53;;;;;;;6.99;100.00;102328.72;4964231;28;20082;-75
2023/04/08 05:07:20;;;;;;;100.13;36.95;;;;;;;6.95;100.00;102316.56;4969226;28;20094;-75
2023/04/08 05:09:45;;;;;;;102.60;39.10;;;;;;;6.99;100.00;102323.53;4971405;28;20031;-75
2023/04/08 05:12:11;;;;;;;97.70;38.42;;;;;;;7.01;100.00;102321.84;4972811;28;20113;-75
2023/04/08 05:14:36;;;;;;;95.13;37.35;;;;;;;7.02;100.00;102321.00;4962819;28;20483;-75
2023/04/08 05:17:02;;;;;;;109.40;37.90;;;;;;;7.04;100.00;102333.16;4973058;28;20054;-75
2023/04/08 05:19:27;;;;;;;90.38;36.08;;;;;;;7.04;100.00;102330.56;4973732;28;20022;-75
2023/04/08 05:21:52;;;;;;;100.15;38.17;;;;;;;7.06;100.00;102333.16;4973145;28;20027;-75
2023/04/08 05:24:20;;;;;;;95.13;34.70;;;;;;;7.08;100.00;102339.25;4969082;28;20031;-75
2023/04/08 05:26:47;;;;;;;75.13;33.90;;;;;;;7.09;100.00;102338.38;4971552;28;20034;-75
2023/04/08 05:29:12;;;;;;;87.70;33.53;;;;;;;7.10;100.00;102340.16;4971205;28;20019;-75
2023/04/08 05:31:38;;;;;;;80.90;31.52;;;;;;;7.11;100.00;102339.28;4972802;28;20023;-75
2023/04/08 05:34:03;;;;;;;77.53;30.52;;;;;;;7.11;100.00;102341.03;4969379;28;20027;-75
2023/04/08 05:36:29;;;;;;;75.05;30.33;;;;;;;7.10;100.00;102342.75;4958517;28;20166;-75
2023/04/08 05:38:54;;;;;;;72.93;29.50;;;;;;;7.11;100.00;102344.47;4958475;28;20027;-75
2023/04/08 05:41:20;;;;;;;74.13;30.08;;;;;;;7.06;100.00;102334.88;4961467;28;20035;-75
2023/04/08 05:43:45;;;;;;;67.28;28.33;;;;;;;7.12;100.00;102348.81;4955711;28;20094;-75
2023/04/08 05:46:10;;;;;;;70.05;28.38;;;;;;;7.17;100.00;102354.09;4957890;28;20037;-74
2023/04/08 05:48:36;;;;;;;67.72;28.65;;;;;;;7.08;100.00;102331.47;4965485;28;20035;-75
2023/04/08 05:51:02;;;;;;;67.18;28.63;;;;;;;7.22;100.00;102352.41;4969136;28;20015;-75
2023/04/08 05:53:27;;;;;;;70.28;27.83;;;;;;;7.24;100.00;102354.19;4972947;28;20062;-75
2023/04/08 05:55:53;;;;;;;67.00;28.55;;;;;;;7.27;100.00;102356.81;4973262;28;20424;-75
2023/04/08 05:58:18;;;;;;;63.72;28.38;;;;;;;7.29;100.00;102362.03;4969069;28;20074;-74
2023/04/08 06:00:43;;;;;;;58.60;26.88;;;;;;;7.31;100.00;102356.88;4966533;28;20479;-75
2023/04/08 06:03:09;;;;;;;62.53;27.08;;;;;;;7.31;100.00;102356.88;4970928;28;20039;-75
2023/04/08 06:05:34;;;;;;;66.15;26.88;;;;;;;7.37;100.00;102365.63;4973200;28;20392;-75
2023/04/08 06:08:00;;;;;;;62.75;27.05;;;;;;;7.42;100.00;102373.44;4972570;28;20179;-75
2023/04/08 06:10:25;;;;;;;51.47;26.73;;;;;;;7.43;100.00;102364.84;4973358;28;20019;-75
2023/04/08 06:12:50;;;;;;;59.40;25.23;;;;;;;7.48;100.00;102368.34;4972946;28;20039;-75
2023/04/08 06:15:16;;;;;;;50.58;23.70;;;;;;;7.53;100.00;102374.47;4968734;28;20031;-75
2023/04/08 06:17:41;;;;;;;44.40;23.58;;;;;;;7.53;100.00;102377.06;4966434;28;20390;-75
2023/04/08 06:20:10;;;;;;;52.58;25.27;;;;;;;7.56;100.00;102381.44;4972635;28;20030;-75
2023/04/08 06:22:35;;;;;;;53.95;25.70;;;;;;;7.57;100.00;102384.03;4974487;28;20031;-75
2023/04/08 06:25:01;;;;;;;59.83;27.23;;;;;;;7.60;100.00;102378.91;4976952;28;20093;-75
2023/04/08 06:27:26;;;;;;;54.95;26.88;;;;;;;7.60;100.00;102373.72;4975902;28;20430;-75
2023/04/08 06:29:52;;;;;;;58.63;28.20;;;;;;;7.72;100.00;102388.59;4976917;28;20031;-74
2023/04/08 06:32:17;;;;;;;54.55;26.77;;;;;;;7.80;100.00;102386.94;4972971;28;20031;-75
2023/04/08 06:34:44;;;;;;;52.83;27.30;;;;;;;7.89;100.00;102397.44;4969252;28;20042;-75
2023/04/08 06:37:10;;;;;;;52.90;26.75;;;;;;;7.94;100.00;102387.97;4976363;28;20027;-75
2023/04/08 06:39:35;;;;;;;44.83;24.52;;;;;;;8.07;100.00;102399.38;4960210;28;20039;-74
2023/04/08 06:42:01;;;;;;;45.30;22.50;;;;;;;8.10;100.00;102407.22;4969343;28;20062;-75
2023/04/08 06:44:26;;;;;;;34.95;20.58;;;;;;;8.08;100.00;102400.28;4974213;28;20102;-75
2023/04/08 06:46:51;;;;;;;36.80;20.08;;;;;;;8.11;100.00;102408.97;4958220;28;20027;-75
2023/04/08 06:49:16;;;;;;;37.58;20.70;;;;;;;8.16;100.00;102414.22;4960236;28;20042;-75
2023/04/08 06:51:42;;;;;;;32.70;18.67;;;;;;;8.19;100.00;102416.84;4965864;28;20023;-75
2023/04/08 06:54:10;;;;;;;34.83;19.33;;;;;;;8.23;100.00;102402.16;4971814;28;20498;-75
2023/04/08 06:56:36;;;;;;;30.13;18.48;;;;;;;8.25;100.00;102408.25;4975820;28;20061;-75
2023/04/08 06:59:02;;;;;;;31.27;18.50;;;;;;;8.31;100.00;102421.31;4959228;28;20054;-75
2023/04/08 07:01:27;;;;;;;30.63;17.45;;;;;;;8.34;100.00;102423.97;4958406;28;20036;-75
2023/04/08 07:03:52;;;;;;;29.08;17.50;;;;;;;8.40;100.00;102426.63;4961636;28;20127;-75
2023/04/08 07:06:18;;;;;;;28.73;17.90;;;;;;;8.42;100.00;102419.72;4973253;28;20037;-73
2023/04/08 07:08:43;;;;;;;32.28;19.60;;;;;;;8.55;100.00;102426.81;4972960;28;20030;-74
2023/04/08 07:11:08;;;;;;;29.50;18.13;;;;;;;8.53;100.00;102410.31;4972359;28;20033;-75
2023/04/08 07:13:34;;;;;;;32.50;19.77;;;;;;;8.71;100.00;102429.56;4975186;28;20150;-75
2023/04/08 07:15:59;;;;;;;32.42;18.70;;;;;;;8.82;100.00;102430.53;4974689;28;20035;-74
2023/04/08 07:18:25;;;;;;;29.98;18.92;;;;;;;8.92;100.00;102427.13;4973137;28;20026;-74
2023/04/08 07:20:54;;;;;;;29.77;18.80;;;;;;;8.98;100.00;102436.75;4976000;28;20097;-74
2023/04/08 07:23:20;;;;;;;33.45;19.83;;;;;;;9.10;100.00;102442.06;4974996;28;20027;-74
2023/04/08 07:25:46;;;;;;;30.42;18.95;;;;;;;9.10;100.00;102448.13;4973356;28;20032;-74
2023/04/08 07:28:11;;;;;;;32.60;19.92;;;;;;;9.10;100.00;102448.13;4974609;28;20430;-74
2023/04/08 07:30:37;;;;;;;30.58;19.05;;;;;;;9.04;100.00;102453.28;4976821;28;20062;-74
2023/04/08 07:33:02;;;;;;;32.35;20.02;;;;;;;8.99;100.00;102454.06;4971750;28;20035;-75
2023/04/08 07:35:28;;;;;;;30.33;18.95;;;;;;;8.91;100.00;102446.22;4974551;28;20382;-74
2023/04/08 07:37:53;;;;;;;30.40;19.10;;;;;;;8.85;100.00;102456.56;4975063;28;20375;-75
2023/04/08 07:40:19;;;;;;;30.83;19.48;;;;;;;8.90;100.00;102457.50;4974908;28;20442;-74
2023/04/08 07:42:45;;;;;;;31.83;19.67;;;;;;;8.86;100.00;102461.78;4973316;28;20085;-74
2023/04/08 07:45:10;;;;;;;30.65;19.38;;;;;;;8.90;100.00;102457.50;4974281;28;20033;-75
2023/04/08 07:47:36;;;;;;;32.08;19.55;;;;;;;8.88;100.00;102467.88;4973969;28;21030;-75
2023/04/08 07:50:02;;;;;;;32.40;20.60;;;;;;;8.88;100.00;102467.00;4975580;28;20033;-75
2023/04/08 07:52:29;;;;;;;31.23;18.52;;;;;;;8.86;100.00;102460.91;4972903;28;20046;-74
2023/04/08 07:54:54;;;;;;;29.27;18.25;;;;;;;8.83;100.00;102447.91;4975437;28;20035;-75
2023/04/08 07:57:20;;;;;;;28.40;17.48;;;;;;;8.92;100.00;102458.34;4973702;28;20023;-74
2023/04/08 07:59:45;;;;;;;28.40;17.92;;;;;;;9.11;100.00;102469.81;4971872;28;20089;-74
2023/04/08 08:02:10;;;;;;;29.83;19.30;;;;;;;9.22;100.00;102482.91;4973260;28;20398;-75
2023/04/08 08:04:36;;;;;;;26.45;17.58;;;;;;;9.25;100.00;102482.91;4974136;28;20050;-75
2023/04/08 08:07:01;;;;;;;29.63;18.52;;;;;;;9.24;100.00;102486.41;4972978;28;20030;-75
2023/04/08 08:09:26;;;;;;;26.05;16.67;;;;;;;9.27;100.00;102486.41;4974143;28;20172;-75
2023/04/08 08:11:51;;;;;;;27.63;18.30;;;;;;;9.32;100.00;102484.75;4975049;28;20027;-75
2023/04/08 08:14:17;;;;;;;27.92;18.92;;;;;;;9.36;100.00;102489.09;4973067;28;20117;-75
2023/04/08 08:16:43;;;;;;;32.03;19.83;;;;;;;9.36;100.00;102489.09;4973789;28;20027;-75
2023/04/08 08:19:08;;;;;;;31.08;19.33;;;;;;;9.38;100.00;102496.06;4973105;28;20023;-75
2023/04/08 08:21:38;;;;;;;28.90;19.58;;;;;;;9.36;100.00;102497.78;4974157;28;20027;-75
2023/04/08 08:24:03;;;;;;;30.42;19.88;;;;;;;9.31;100.00;102498.59;4972947;28;20022;-75
2023/04/08 08:26:29;;;;;;;30.85;19.60;;;;;;;9.23;100.00;102487.25;4973052;28;20489;-75
2023/04/08 08:28:54;;;;;;;34.15;20.42;;;;;;;9.24;100.00;102495.06;4973122;28;20487;-75
2023/04/08 08:31:19;;;;;;;28.25;20.17;;;;;;;9.31;100.00;102509.00;4974071;28;20031;-74
2023/04/08 08:33:46;;;;;;;29.25;19.27;;;;;;;9.30;100.00;102504.66;4974584;28;20018;-75
2023/04/08 08:36:12;;;;;;;26.60;19.00;;;;;;;9.32;100.00;102503.81;4971766;28;20532;-75
2023/04/08 08:38:37;;;;;;;27.05;18.67;;;;;;;9.34;100.00;102509.03;4970238;28;20027;-75
2023/04/08 08:41:03;;;;;;;27.55;18.52;;;;;;;9.36;100.00;102516.00;4971732;28;20356;-75
2023/04/08 08:43:32;;;;;;;27.58;18.45;;;;;;;9.46;100.00;102514.34;4971223;28;20093;-75
2023/04/08 08:45:58;;;;;;;26.30;17.83;;;;;;;9.56;100.00;102510.94;4970252;28;20050;-75
2023/04/08 08:48:24;;;;;;;24.58;16.73;;;;;;;9.71;100.00;102524.91;4970903;28;20494;-75
2023/04/08 08:50:50;;;;;;;24.67;16.77;;;;;;;9.88;100.00;102512.91;4972498;28;20023;-75
2023/04/08 08:53:15;;;;;;;25.38;17.63;;;;;;;10.04;100.00;102508.66;4973265;28;20542;-75
2023/04/08 08:55:40;;;;;;;25.98;16.55;;;;;;;10.36;100.00;102516.63;4970579;28;20043;-74
2023/04/08 08:58:06;;;;;;;25.35;17.27;;;;;;;10.47;100.00;102520.16;4977250;28;20019;-75
2023/04/08 09:00:36;;;;;;;25.95;17.88;;;;;;;10.53;100.00;102514.97;4972262;28;20450;-75
2023/04/08 09:03:26;;;;;;;28.05;18.70;;;;;;;10.68;100.00;102521.97;4971494;28;20502;-75
2023/04/08 09:05:56;;;;;;;27.50;18.63;;;;;;;10.72;100.00;102521.09;4973823;28;20109;-75
2023/04/08 09:08:32;;;;;;;29.45;18.88;;;;;;;10.78;100.00;102525.47;4973763;28;20063;-75
2023/04/08 09:11:13;;;;;;;27.73;19.00;;;;;;;10.86;100.00;102533.34;4966683;28;20197;-75
2023/04/08 09:13:39;;;;;;;29.70;19.63;;;;;;;10.70;100.00;102522.00;4972960;28;20380;-76
2023/04/08 09:16:09;;;;;;;25.15;18.35;;;;;;;10.72;100.00;102535.88;4972854;28;20025;-75
2023/04/08 09:18:36;;;;;;;26.70;18.60;;;;;;;10.63;100.00;102535.88;4972003;28;20157;-81
2023/04/08 09:21:03;;;;;;;27.73;19.00;;;;;;;10.51;100.00;102526.25;4971345;28;20023;-75
2023/04/08 09:24:00;;;;;;;28.80;19.08;;;;;;;10.58;100.00;102527.16;4971549;28;20041;-75
2023/04/08 09:26:26;;;;;;;29.20;20.05;;;;;;;10.58;100.00;102540.19;4937912;28;20042;-75
2023/04/08 09:29:22;;;;;;;30.30;20.65;;;;;;;10.54;100.00;102548.00;4972664;28;20078;-75
2023/04/08 09:31:53;;;;;;;30.38;20.05;;;;;;;10.38;100.00;102548.81;4963484;28;20093;-75
2023/04/08 09:34:20;;;;;;;32.75;21.52;;;;;;;10.28;100.00;102547.03;4972133;28;20018;-76
2023/04/08 09:36:47;;;;;;;34.53;22.45;;;;;;;10.19;100.00;102554.75;4972278;28;20073;-74
2023/04/08 09:39:13;;;;;;;34.13;22.05;;;;;;;10.11;100.00;102552.13;4972688;28;20019;-75
2023/04/08 09:41:40;;;;;;;35.40;21.88;;;;;;;10.25;100.00;102547.84;4973134;28;20109;-75
2023/04/08 09:44:18;;;;;;;35.53;24.35;;;;;;;10.46;100.00;102554.03;4971934;28;20061;-74
2023/04/08 09:46:59;;;;;;;37.20;22.92;;;;;;;10.50;100.00;102535.84;4971812;28;20113;-75
2023/04/08 09:49:24;;;;;;;34.25;22.20;;;;;;;10.71;100.00;102555.03;4973252;28;20027;-75
2023/04/08 09:52:08;;;;;;;34.45;22.95;;;;;;;10.82;100.00;102558.53;4971933;28;20046;-75
2023/04/08 09:54:39;;;;;;;;;;;;;;;10.89;100.00;102557.69;4972459;28;20027;-75
2023/04/08 09:57:16;;;;;;;33.15;22.27;;;;;;;10.74;100.00;102560.25;4974210;28;19921;-75
2023/04/08 09:59:56;;;;;;;32.55;21.45;;;;;;;10.73;100.00;102564.59;4976623;28;20378;-75
2023/04/08 10:02:30;;;;;;;31.40;22.45;;;;;;;10.72;100.00;102559.38;4976638;28;20050;-75
2023/04/08 10:04:58;;;;;;;32.60;21.60;;;;;;;10.71;100.00;102563.72;4975654;28;20059;-75
2023/04/08 10:07:24;;;;;;;32.60;23.40;;;;;;;10.74;100.00;102557.66;4974986;28;20114;-75
2023/04/08 10:09:50;;;;;;;32.63;22.25;;;;;;;10.86;100.00;102564.66;4976527;28;20106;-75
2023/04/08 10:12:15;;;;;;;34.20;22.63;;;;;;;10.92;100.00;102565.53;4975839;28;20031;-75
2023/04/08 10:14:41;;;;;;;32.35;21.25;;;;;;;11.00;100.00;102563.81;4976180;28;20113;-75
2023/04/08 10:17:30;;;;;;;33.20;20.73;;;;;;;11.14;100.00;102565.56;4976460;28;20463;-75
2023/04/08 10:19:57;;;;;;;27.65;21.02;;;;;;;11.25;100.00;102563.84;4975522;28;20023;-75
2023/04/08 10:22:28;;;;;;;27.40;19.83;;;;;;;11.36;100.00;102569.09;4975907;28;20031;-75
2023/04/08 10:25:15;;;;;;;26.85;19.98;;;;;;;11.37;100.00;102573.41;4975253;28;20041;-75
2023/04/08 10:27:42;;;;;;;28.08;19.20;;;;;;;11.39;100.00;102564.72;4976389;28;20038;-75
2023/04/08 10:30:26;;;;;;;29.30;20.75;;;;;;;11.51;100.00;102570.81;4975721;28;20069;-75
2023/04/08 10:32:52;;;;;;;26.45;20.02;;;;;;;11.56;100.00;102551.66;4975228;28;20479;-75
2023/04/08 10:35:31;;;;;;;28.38;21.88;;;;;;;11.75;100.00;102542.06;4975638;28;20022;-75
2023/04/08 10:37:58;;;;;;;27.20;19.98;;;;;;;11.99;100.00;102548.16;4973971;28;20089;-75
2023/04/08 10:40:23;;;;;;;24.70;19.98;;;;;;;12.13;99.61;102555.13;4972497;28;20035;-75
2023/04/08 10:42:55;;;;;;;24.42;18.85;;;;;;;12.29;96.31;102552.44;4974913;28;20026;-75
2023/04/08 10:45:21;;;;;;;24.50;18.75;;;;;;;12.19;97.29;102546.34;4976622;28;20058;-75
2023/04/08 10:47:47;;;;;;;23.98;18.92;;;;;;;12.11;98.52;102549.00;4975643;28;20467;-75
2023/04/08 10:50:17;;;;;;;25.58;19.42;;;;;;;12.11;98.76;102553.38;4975992;28;20027;-75
2023/04/08 10:52:50;;;;;;;25.20;19.35;;;;;;;12.25;100.00;102546.34;4973331;28;21701;-75
2023/04/08 10:55:21;;;;;;;;;;;;;;;12.63;100.00;102542.72;4973892;28;20035;-75
2023/04/08 10:57:46;;;;;;;26.05;19.42;;;;;;;12.73;92.71;102541.78;4975423;28;19918;-75
2023/04/08 11:00:17;;;;;;;24.42;19.63;;;;;;;12.54;91.69;102540.13;4973364;28;20081;-75
2023/04/08 11:02:42;;;;;;;24.02;20.33;;;;;;;12.50;94.81;102539.28;4974846;28;20059;-75
2023/04/08 11:05:09;;;;;;;28.17;20.77;;;;;;;12.45;93.75;102532.31;4974045;28;20074;-75
2023/04/08 11:07:41;;;;;;;24.42;19.30;;;;;;;12.75;93.69;102531.28;4975703;28;20038;-75
2023/04/08 11:10:08;;;;;;;26.38;20.50;;;;;;;12.96;90.43;102532.94;4974473;28;20015;-75